createdAt,value
2018-01-11T00:00:49.362Z,5.60
2018-01-11T00:03:18.512Z,5.50
2018-01-11T00:05:46.964Z,5.50
2018-01-11T00:08:15.620Z,5.40
2018-01-11T00:10:44.803Z,5.50
2018-01-11T00:13:13.231Z,5.50
2018-01-11T00:15:41.607Z,5.50
2018-01-11T00:18:09.978Z,5.50
2018-01-11T00:20:38.389Z,5.60
2018-01-11T00:23:06.779Z,5.70
2018-01-11T00:25:35.956Z,5.80
2018-01-11T00:28:04.683Z,5.80
2018-01-11T00:30:33.062Z,5.80
2018-01-11T00:33:01.439Z,5.90
2018-01-11T00:35:30.169Z,5.90
2018-01-11T00:37:58.541Z,5.90
2018-01-11T00:40:26.911Z,5.90
2018-01-11T00:42:55.629Z,5.80
2018-01-11T00:45:24.016Z,5.90
2018-01-11T00:47:52.448Z,5.60
2018-01-11T00:50:21.644Z,5.60
2018-01-11T00:52:51.240Z,5.60
2018-01-11T00:55:19.633Z,5.60
2018-01-11T00:57:48.923Z,5.70
2018-01-11T01:00:18.130Z,5.60
2018-01-11T01:02:47.308Z,5.70
2018-01-11T01:05:15.902Z,5.70
2018-01-11T01:07:45.059Z,5.80
2018-01-11T01:10:13.738Z,5.70
2018-01-11T01:12:42.479Z,5.80
2018-01-11T01:15:11.615Z,5.80
2018-01-11T01:17:40.767Z,5.70
2018-01-11T01:20:10.085Z,5.80
2018-01-11T01:22:38.501Z,5.80
2018-01-11T01:25:07.697Z,5.80
2018-01-11T01:27:36.248Z,5.70
2018-01-11T01:30:04.650Z,5.70
2018-01-11T01:32:33.024Z,5.70
2018-01-11T01:35:01.660Z,5.60
2018-01-11T01:37:30.050Z,5.60
2018-01-11T01:39:59.193Z,5.70
2018-01-11T01:42:27.914Z,5.70
2018-01-11T01:44:56.295Z,5.80
2018-01-11T01:47:24.685Z,5.70
2018-01-11T01:49:54.375Z,5.80
2018-01-11T01:52:22.790Z,5.80
2018-01-11T01:54:51.990Z,5.80
2018-01-11T01:57:21.242Z,5.80
2018-01-11T01:59:49.615Z,5.80
2018-01-11T02:02:18.008Z,5.90
2018-01-11T02:04:46.514Z,5.90
2018-01-11T02:07:15.663Z,6.00
2018-01-11T02:09:44.047Z,6.00
2018-01-11T02:12:13.175Z,5.90
2018-01-11T02:14:41.561Z,5.80
2018-01-11T02:17:10.709Z,5.90
2018-01-11T02:19:39.122Z,5.90
2018-01-11T02:22:07.521Z,5.80
2018-01-11T02:24:36.664Z,5.90
2018-01-11T02:27:05.116Z,5.90
2018-01-11T02:29:33.496Z,5.90
2018-01-11T02:32:01.866Z,5.90
2018-01-11T02:34:30.299Z,5.90
2018-01-11T02:36:58.679Z,5.80
2018-01-11T02:39:27.280Z,5.90
2018-01-11T02:41:55.730Z,5.80
2018-01-11T02:44:24.115Z,5.80
2018-01-11T02:46:52.498Z,5.80
2018-01-11T02:49:20.907Z,5.80
2018-01-11T02:51:49.321Z,5.70
2018-01-11T02:54:17.703Z,5.70
2018-01-11T02:56:46.123Z,5.70
2018-01-11T02:59:14.548Z,5.70
2018-01-11T03:01:42.918Z,5.70
2018-01-11T03:04:12.602Z,5.70
2018-01-11T03:06:40.969Z,5.70
2018-01-11T03:09:09.393Z,5.70
2018-01-11T03:11:38.065Z,5.70
2018-01-11T03:14:07.292Z,5.60
2018-01-11T03:16:35.668Z,5.60
2018-01-11T03:19:04.096Z,5.60
2018-01-11T03:21:32.486Z,5.60
2018-01-11T03:24:00.875Z,5.60
2018-01-11T03:26:29.440Z,5.60
2018-01-11T03:28:57.835Z,5.70
2018-01-11T03:31:27.003Z,5.80
2018-01-11T03:33:55.614Z,5.70
2018-01-11T03:36:24.758Z,5.80
2018-01-11T03:38:59.458Z,5.80
2018-01-11T03:41:33.310Z,5.80
2018-01-11T03:44:02.010Z,5.80
2018-01-11T03:46:30.424Z,5.80
2018-01-11T03:51:59.920Z,5.80
2018-01-11T03:54:29.073Z,5.80
2018-01-11T03:56:57.480Z,5.90
2018-01-11T03:59:25.895Z,5.80
2018-01-11T04:01:56.004Z,5.80
2018-01-11T04:04:24.421Z,5.80
2018-01-11T04:06:52.963Z,5.90
2018-01-11T04:09:21.345Z,5.80
2018-01-11T04:11:49.744Z,5.80
2018-01-11T04:14:19.392Z,5.80
2018-01-11T04:16:47.788Z,5.70
2018-01-11T04:19:16.161Z,5.70
2018-01-11T04:21:44.606Z,5.70
2018-01-11T04:24:12.992Z,5.70
2018-01-11T04:26:41.360Z,5.70
2018-01-11T04:29:10.547Z,5.70
2018-01-11T04:31:39.706Z,5.70
2018-01-11T04:34:08.122Z,5.70
2018-01-11T04:36:37.702Z,5.70
2018-01-11T04:39:06.090Z,5.70
2018-01-11T04:41:34.850Z,5.80
2018-01-11T04:44:03.670Z,5.80
2018-01-11T04:46:32.830Z,5.80
2018-01-11T04:49:01.225Z,5.80
2018-01-11T04:51:29.929Z,5.80
2018-01-11T04:53:58.657Z,5.80
2018-01-11T04:56:27.113Z,5.90
2018-01-11T04:58:56.517Z,5.90
2018-01-11T05:01:24.949Z,5.90
2018-01-11T05:03:53.316Z,5.90
2018-01-11T05:06:22.029Z,5.90
2018-01-11T05:08:50.396Z,6.00
2018-01-11T05:11:18.775Z,6.00
2018-01-11T05:13:47.370Z,6.00
2018-01-11T05:16:16.105Z,6.00
2018-01-11T05:18:44.594Z,6.00
2018-01-11T05:21:13.057Z,6.00
2018-01-11T05:23:41.436Z,5.90
2018-01-11T05:26:09.814Z,6.00
2018-01-11T05:28:38.230Z,6.00
2018-01-11T05:31:06.842Z,6.00
2018-01-11T05:33:35.229Z,6.00
2018-01-11T05:36:03.654Z,6.10
2018-01-11T05:38:32.060Z,6.00
2018-01-11T05:41:00.431Z,6.00
2018-01-11T05:43:29.090Z,6.00
2018-01-11T05:45:57.461Z,6.10
2018-01-11T05:48:25.843Z,6.00
2018-01-11T05:50:54.274Z,6.10
2018-01-11T05:53:22.658Z,6.00
2018-01-11T05:55:51.216Z,6.00
2018-01-11T05:58:20.476Z,6.00
2018-01-11T06:00:48.856Z,6.00
2018-01-11T06:03:17.307Z,6.00
2018-01-11T06:05:45.885Z,6.00
2018-01-11T06:08:14.345Z,6.00
2018-01-11T06:10:42.756Z,6.00
2018-01-11T06:13:11.988Z,6.00
2018-01-11T06:15:40.406Z,6.00
2018-01-11T06:18:08.978Z,6.10
2018-01-11T06:20:37.562Z,6.10
2018-01-11T06:23:06.272Z,6.10
2018-01-11T06:25:34.647Z,6.10
2018-01-11T06:28:03.066Z,6.10
2018-01-11T06:30:31.489Z,6.10
2018-01-11T06:32:59.893Z,6.10
2018-01-11T06:35:28.758Z,6.10
2018-01-11T06:37:57.154Z,6.10
2018-01-11T06:40:25.627Z,6.10
2018-01-11T06:42:54.050Z,6.10
2018-01-11T06:45:22.650Z,6.20
2018-01-11T06:47:51.076Z,6.20
2018-01-11T06:50:19.504Z,6.10
2018-01-11T06:52:47.902Z,6.10
2018-01-11T06:55:16.307Z,6.10
2018-01-11T06:57:44.808Z,6.10
2018-01-11T07:00:13.275Z,6.00
2018-01-11T07:02:41.673Z,6.10
2018-01-11T07:05:10.177Z,6.10
2018-01-11T07:07:39.324Z,6.10
2018-01-11T07:10:07.768Z,6.10
2018-01-11T07:12:36.291Z,6.10
2018-01-11T07:15:04.808Z,6.20
2018-01-11T07:17:33.961Z,6.10
2018-01-11T07:20:02.976Z,6.10
2018-01-11T07:22:31.384Z,6.10
2018-01-11T07:25:00.566Z,6.10
2018-01-11T07:27:30.073Z,6.10
2018-01-11T07:29:59.258Z,6.10
2018-01-11T07:32:27.639Z,6.10
2018-01-11T07:34:56.366Z,6.10
2018-01-11T07:37:24.740Z,6.20
2018-01-11T07:39:53.128Z,6.20
2018-01-11T07:42:21.783Z,6.20
2018-01-11T07:44:50.917Z,6.10
2018-01-11T07:47:19.321Z,6.10
2018-01-11T07:49:47.921Z,6.20
2018-01-11T07:52:16.348Z,6.10
2018-01-11T07:54:44.811Z,6.10
2018-01-11T07:57:14.121Z,6.30
2018-01-11T07:59:42.582Z,6.20
2018-01-11T08:02:11.769Z,6.20
2018-01-11T08:04:40.375Z,6.20
2018-01-11T08:07:08.769Z,6.20
2018-01-11T08:09:37.215Z,6.20
2018-01-11T08:12:06.427Z,6.30
2018-01-11T08:14:35.584Z,6.20
2018-01-11T08:17:03.976Z,6.20
2018-01-11T08:19:32.386Z,6.20
2018-01-11T08:22:01.638Z,6.30
2018-01-11T08:24:30.079Z,6.30
2018-01-11T08:26:58.725Z,6.30
2018-01-11T08:29:27.103Z,6.30
2018-01-11T08:31:55.482Z,6.20
2018-01-11T08:34:24.677Z,6.30
2018-01-11T08:36:53.087Z,6.30
2018-01-11T08:39:22.226Z,6.20
2018-01-11T08:41:50.669Z,6.20
2018-01-11T08:44:19.042Z,6.10
2018-01-11T08:46:47.431Z,6.10
2018-01-11T08:49:16.282Z,6.00
2018-01-11T08:51:44.684Z,6.10
2018-01-11T08:54:13.832Z,6.00
2018-01-11T08:56:42.405Z,6.00
2018-01-11T08:59:10.798Z,6.00
2018-01-11T09:01:39.270Z,6.10
2018-01-11T09:04:08.106Z,6.10
2018-01-11T09:06:37.262Z,6.10
2018-01-11T09:09:05.740Z,6.00
2018-01-11T09:11:34.267Z,6.20
2018-01-11T09:14:03.496Z,6.10
2018-01-11T09:16:31.908Z,6.10
2018-01-11T09:19:00.635Z,6.10
2018-01-11T09:21:29.804Z,6.10
2018-01-11T09:23:58.812Z,6.10
2018-01-11T09:26:28.017Z,6.30
2018-01-11T09:28:57.283Z,6.20
2018-01-11T09:31:25.793Z,6.30
2018-01-11T09:33:55.015Z,6.40
2018-01-11T09:36:23.428Z,6.40
2018-01-11T09:38:51.863Z,6.40
2018-01-11T09:41:21.131Z,6.50
2018-01-11T09:43:49.520Z,6.50
2018-01-11T09:46:17.948Z,6.50
2018-01-11T09:48:46.426Z,6.60
2018-01-11T09:51:14.850Z,6.80
2018-01-11T09:53:43.221Z,6.80
2018-01-11T09:56:11.800Z,7.00
2018-01-11T09:58:40.287Z,6.80
2018-01-11T10:01:08.678Z,6.80
2018-01-11T10:03:37.191Z,6.60
2018-01-11T10:06:06.339Z,6.80
2018-01-11T10:08:34.743Z,6.80
2018-01-11T10:11:03.507Z,6.80
2018-01-11T10:13:31.900Z,6.80
2018-01-11T10:16:00.313Z,6.90
2018-01-11T10:18:29.295Z,6.90
2018-01-11T10:20:57.699Z,6.90
2018-01-11T10:23:26.115Z,6.90
2018-01-11T10:25:55.227Z,6.90
2018-01-11T10:28:24.410Z,6.90
2018-01-11T10:30:52.801Z,7.00
2018-01-11T10:33:21.316Z,6.90
2018-01-11T10:35:50.468Z,7.00
2018-01-11T10:38:18.861Z,6.90
2018-01-11T10:40:47.569Z,7.00
2018-01-11T10:43:16.761Z,7.10
2018-01-11T10:45:45.932Z,7.20
2018-01-11T10:48:14.752Z,7.20
2018-01-11T10:50:43.896Z,7.40
2018-01-11T10:53:12.536Z,7.30
2018-01-11T10:55:42.804Z,7.50
2018-01-11T10:58:11.216Z,7.40
2018-01-11T11:00:45.336Z,7.50
2018-01-11T11:03:13.735Z,7.50
2018-01-11T11:05:42.897Z,7.40
2018-01-11T11:08:11.336Z,7.40
2018-01-11T11:10:39.770Z,7.40
2018-01-11T11:13:08.194Z,7.20
2018-01-11T11:15:37.142Z,7.20
2018-01-11T11:18:05.518Z,7.30
2018-01-11T11:20:33.919Z,7.40
2018-01-11T11:23:03.139Z,7.30
2018-01-11T11:25:31.537Z,7.30
2018-01-11T11:28:01.084Z,7.50
2018-01-11T11:30:29.978Z,7.40
2018-01-11T11:32:58.367Z,7.60
2018-01-11T11:35:27.518Z,7.40
2018-01-11T11:37:56.074Z,7.30
2018-01-11T11:40:24.529Z,7.40
2018-01-11T11:42:52.957Z,7.30
2018-01-11T11:45:21.435Z,7.50
2018-01-11T11:47:49.803Z,7.50
2018-01-11T11:50:18.188Z,7.60
2018-01-11T11:52:46.635Z,7.60
2018-01-11T11:55:15.816Z,7.50
2018-01-11T11:57:46.437Z,7.60
2018-01-11T12:00:15.726Z,7.60
2018-01-11T12:02:44.143Z,7.60
2018-01-11T12:05:14.318Z,7.60
2018-01-11T12:07:42.779Z,7.60
2018-01-11T12:10:11.185Z,7.50
2018-01-11T12:12:39.581Z,7.60
2018-01-11T12:15:08.793Z,7.70
2018-01-11T12:17:37.961Z,7.70
2018-01-11T12:20:06.366Z,7.70
2018-01-11T12:22:35.577Z,7.80
2018-01-11T12:25:04.590Z,7.80
2018-01-11T12:27:33.223Z,7.60
2018-01-11T12:30:02.324Z,7.60
2018-01-11T12:32:30.737Z,7.50
2018-01-11T12:34:59.139Z,7.50
2018-01-11T12:37:28.431Z,7.70
2018-01-11T12:39:56.811Z,7.70
2018-01-11T12:42:25.230Z,7.70
2018-01-11T12:44:53.963Z,7.70
2018-01-11T12:47:22.359Z,7.70
2018-01-11T12:49:51.585Z,7.70
2018-01-11T12:52:20.020Z,7.80
2018-01-11T12:54:48.673Z,7.80
2018-01-11T12:57:17.892Z,7.90
2018-01-11T12:59:47.094Z,7.80
2018-01-11T13:02:16.243Z,7.70
2018-01-11T13:04:44.638Z,7.70
2018-01-11T13:07:13.204Z,7.70
2018-01-11T13:09:41.631Z,7.70
2018-01-11T13:12:10.316Z,7.80
2018-01-11T13:14:38.735Z,7.80
2018-01-11T13:17:07.106Z,7.70
2018-01-11T13:19:35.819Z,7.60
2018-01-11T13:22:04.508Z,7.70
2018-01-11T13:24:32.938Z,7.80
2018-01-11T13:27:01.358Z,7.90
2018-01-11T13:29:29.940Z,7.90
2018-01-11T13:31:58.834Z,7.90
2018-01-11T13:34:27.243Z,7.70
2018-01-11T13:36:56.445Z,7.90
2018-01-11T13:39:25.623Z,7.90
2018-01-11T13:41:54.008Z,7.90
2018-01-11T13:44:23.588Z,7.90
2018-01-11T13:46:52.399Z,8.00
2018-01-11T13:49:20.807Z,7.80
2018-01-11T13:51:50.471Z,7.90
2018-01-11T13:54:20.370Z,7.90
2018-01-11T13:56:48.796Z,7.90
2018-01-11T13:59:18.372Z,7.80
2018-01-11T14:01:46.795Z,7.80
2018-01-11T14:04:15.941Z,7.90
2018-01-11T14:06:44.373Z,7.90
2018-01-11T14:09:16.606Z,7.80
2018-01-11T14:11:45.121Z,7.70
2018-01-11T14:14:14.275Z,7.70
2018-01-11T14:16:42.668Z,7.70
2018-01-11T14:19:11.394Z,7.70
2018-01-11T14:21:39.821Z,7.60
2018-01-11T14:24:08.257Z,7.50
2018-01-11T14:26:37.009Z,7.40
2018-01-11T14:29:05.428Z,7.50
2018-01-11T14:31:34.683Z,7.40
2018-01-11T14:34:03.802Z,7.30
2018-01-11T14:36:32.990Z,7.10
2018-01-11T14:39:02.259Z,7.00
2018-01-11T14:41:31.228Z,7.00
2018-01-11T14:43:59.628Z,7.00
2018-01-11T14:46:28.418Z,6.90
2018-01-11T14:48:57.864Z,6.90
2018-01-11T14:51:27.121Z,6.80
2018-01-11T14:53:55.520Z,6.80
2018-01-11T14:56:24.011Z,6.90
2018-01-11T14:58:53.897Z,6.70
2018-01-11T15:01:22.282Z,6.70
2018-01-11T15:03:50.860Z,6.70
2018-01-11T15:06:19.268Z,6.50
2018-01-11T15:08:49.198Z,6.50
2018-01-11T15:11:18.583Z,6.40
2018-01-11T15:13:47.755Z,6.50
2018-01-11T15:16:16.152Z,6.40
2018-01-11T15:18:45.022Z,6.40
2018-01-11T15:21:13.502Z,6.40
2018-01-11T15:23:42.132Z,6.30
2018-01-11T15:26:10.850Z,6.30
2018-01-11T15:28:39.238Z,6.20
2018-01-11T15:31:07.631Z,6.10
2018-01-11T15:33:36.270Z,6.20
2018-01-11T15:36:05.156Z,6.20
2018-01-11T15:38:33.542Z,6.20
2018-01-11T15:41:02.204Z,6.20
2018-01-11T15:43:30.729Z,6.10
2018-01-11T15:45:59.130Z,6.00
2018-01-11T15:48:28.053Z,6.10
2018-01-11T15:50:57.222Z,6.00
2018-01-11T15:53:27.141Z,5.80
2018-01-11T15:55:55.721Z,5.80
2018-01-11T15:58:24.169Z,5.90
2018-01-11T16:00:52.612Z,5.80
2018-01-11T16:03:21.895Z,5.60
2018-01-11T16:05:50.352Z,5.60
2018-01-11T16:08:18.815Z,5.70
2018-01-11T16:10:47.336Z,5.70
2018-01-11T16:13:15.991Z,5.70
2018-01-11T16:15:44.382Z,5.60
2018-01-11T16:18:12.813Z,5.60
2018-01-11T16:20:41.199Z,5.60
2018-01-11T16:23:09.591Z,5.60
2018-01-11T16:25:38.097Z,5.70
2018-01-11T16:28:06.498Z,5.70
2018-01-11T16:30:34.926Z,5.70
2018-01-11T16:33:03.689Z,5.70
2018-01-11T16:35:32.836Z,5.70
2018-01-11T16:38:01.665Z,5.70
2018-01-11T16:40:31.295Z,5.80
2018-01-11T16:42:59.715Z,5.90
2018-01-11T16:45:28.120Z,5.80
2018-01-11T16:47:56.782Z,5.70
2018-01-11T16:50:25.216Z,5.70
2018-01-11T16:52:53.682Z,5.80
2018-01-11T16:55:22.894Z,5.80
2018-01-11T16:57:52.041Z,5.80
2018-01-11T17:00:20.464Z,5.80
2018-01-11T17:02:49.840Z,5.80
2018-01-11T17:05:18.266Z,5.70
2018-01-11T17:07:46.692Z,5.70
2018-01-11T17:10:15.316Z,5.80
2018-01-11T17:12:44.201Z,5.70
2018-01-11T17:15:12.621Z,5.70
2018-01-11T17:17:41.040Z,5.80
2018-01-11T17:20:09.447Z,5.70
2018-01-11T17:22:37.832Z,5.70
2018-01-11T17:25:06.607Z,5.50
2018-01-11T17:27:35.405Z,5.50
2018-01-11T17:30:03.814Z,5.50
2018-01-11T17:32:32.296Z,5.50
2018-01-11T17:35:00.689Z,5.40
2018-01-11T17:37:29.074Z,5.50
2018-01-11T17:39:57.886Z,5.50
2018-01-11T17:42:26.258Z,5.60
2018-01-11T17:44:55.658Z,5.50
2018-01-11T17:47:24.446Z,5.50
2018-01-11T17:49:52.826Z,5.60
2018-01-11T17:52:21.270Z,5.60
2018-01-11T17:54:49.713Z,5.50
2018-01-11T17:57:18.867Z,5.50
2018-01-11T17:59:47.265Z,5.50
2018-01-11T18:02:15.703Z,5.50
2018-01-11T18:04:44.122Z,5.50
2018-01-11T18:07:12.522Z,5.60
2018-01-11T18:09:41.740Z,5.50
2018-01-11T18:12:10.161Z,5.50
2018-01-11T18:14:38.561Z,5.40
2018-01-11T18:17:07.261Z,5.40
2018-01-11T18:19:36.529Z,5.40
2018-01-11T18:22:04.967Z,5.40
2018-01-11T18:24:33.924Z,5.30
2018-01-11T18:27:03.072Z,5.30
2018-01-11T18:29:31.510Z,5.30
2018-01-11T18:32:01.003Z,5.30
2018-01-11T18:34:30.156Z,5.30
2018-01-11T18:36:58.653Z,5.30
2018-01-11T18:39:27.080Z,5.30
2018-01-11T18:41:56.616Z,5.20
2018-01-11T18:44:25.000Z,5.20
2018-01-11T18:46:53.694Z,5.20
2018-01-11T18:49:22.081Z,5.30
2018-01-11T18:51:50.564Z,5.20
2018-01-11T18:54:19.041Z,5.20
2018-01-11T18:56:47.426Z,5.20
2018-01-11T18:59:15.809Z,5.30
2018-01-11T19:01:44.396Z,5.20
2018-01-11T19:04:12.777Z,5.20
2018-01-11T19:06:41.245Z,5.20
2018-01-11T19:09:09.972Z,5.30
2018-01-11T19:11:38.393Z,5.40
2018-01-11T19:14:06.784Z,5.30
2018-01-11T19:16:35.404Z,5.30
2018-01-11T19:19:04.570Z,5.30
2018-01-11T19:21:32.979Z,5.20
2018-01-11T19:24:02.476Z,5.30
2018-01-11T19:26:30.887Z,5.30
2018-01-11T19:28:59.271Z,5.30
2018-01-11T19:31:27.919Z,5.30
2018-01-11T19:33:56.305Z,5.30
2018-01-11T19:36:24.694Z,5.30
2018-01-11T19:38:54.166Z,5.30
2018-01-11T19:41:22.538Z,5.20
2018-01-11T19:43:51.269Z,5.20
2018-01-11T19:46:20.523Z,5.20
2018-01-11T19:48:49.828Z,5.20
2018-01-11T19:51:18.220Z,5.20
2018-01-11T19:53:46.813Z,5.20
2018-01-11T19:56:16.289Z,5.30
2018-01-11T19:58:44.677Z,5.20
2018-01-11T20:01:13.094Z,5.20
2018-01-11T20:03:42.305Z,5.20
2018-01-11T20:06:10.689Z,5.20
2018-01-11T20:08:39.343Z,5.20
2018-01-11T20:11:08.489Z,5.00
2018-01-11T20:13:36.876Z,5.00
2018-01-11T20:16:05.303Z,5.10
2018-01-11T20:18:34.452Z,5.10
2018-01-11T20:21:03.064Z,5.00
2018-01-11T20:23:31.959Z,5.10
2018-01-11T20:26:00.348Z,5.00
2018-01-11T20:28:29.491Z,4.90
2018-01-11T20:30:58.027Z,4.90
2018-01-11T20:33:27.211Z,4.80
2018-01-11T20:35:55.583Z,4.70
2018-01-11T20:38:24.089Z,4.70
2018-01-11T20:40:53.250Z,4.60
2018-01-11T20:43:21.624Z,4.50
2018-01-11T20:45:50.790Z,4.60
2018-01-11T20:48:19.180Z,4.60
2018-01-11T20:50:47.628Z,4.60
2018-01-11T20:53:16.853Z,4.60
2018-01-11T20:55:45.250Z,4.50
2018-01-11T20:58:13.694Z,4.50
2018-01-11T21:00:42.272Z,4.50
2018-01-11T21:03:10.662Z,4.50
2018-01-11T21:05:39.067Z,4.50
2018-01-11T21:08:07.500Z,4.40
2018-01-11T21:10:36.846Z,4.40
2018-01-11T21:13:05.242Z,4.40
2018-01-11T21:15:33.974Z,4.40
2018-01-11T21:18:03.126Z,4.30
2018-01-11T21:20:31.516Z,4.30
2018-01-11T21:23:00.110Z,4.40
2018-01-11T21:25:28.508Z,4.40
2018-01-11T21:27:57.657Z,4.40
2018-01-11T21:30:26.235Z,4.40
2018-01-11T21:32:54.613Z,4.30
2018-01-11T21:35:23.048Z,4.40
2018-01-11T21:37:52.382Z,4.40
2018-01-11T21:40:20.769Z,4.40
2018-01-11T21:42:49.156Z,4.30
2018-01-11T21:45:17.677Z,4.30
2018-01-11T21:47:47.003Z,4.30
2018-01-11T21:50:15.408Z,4.20
2018-01-11T21:52:43.847Z,4.20
2018-01-11T21:55:12.993Z,4.20
2018-01-11T21:57:41.384Z,4.20
2018-01-11T22:00:10.392Z,4.10
2018-01-11T22:02:38.793Z,4.10
2018-01-11T22:05:07.990Z,4.10
2018-01-11T22:07:37.286Z,4.10
2018-01-11T22:10:06.433Z,4.10
2018-01-11T22:12:34.833Z,4.10
2018-01-11T22:15:03.434Z,4.10
2018-01-11T22:17:31.821Z,4.10
2018-01-11T22:20:00.996Z,4.10
2018-01-11T22:22:29.601Z,4.20
2018-01-11T22:24:58.190Z,4.20
2018-01-11T22:27:27.338Z,4.20
2018-01-11T22:29:55.905Z,4.20
2018-01-11T22:32:24.323Z,4.30
2018-01-11T22:34:52.704Z,4.30
2018-01-11T22:37:21.308Z,4.40
2018-01-11T22:39:50.471Z,4.40
2018-01-11T22:42:18.875Z,4.40
2018-01-11T22:44:47.386Z,4.30
2018-01-11T22:47:15.775Z,4.40
2018-01-11T22:49:44.676Z,4.30
2018-01-11T22:52:13.103Z,4.40
2018-01-11T22:54:41.506Z,4.40
2018-01-11T22:57:10.653Z,4.40
2018-01-11T22:59:39.376Z,4.30
2018-01-11T23:02:08.548Z,4.30
2018-01-11T23:04:36.933Z,4.30
2018-01-11T23:07:05.377Z,4.40
2018-01-11T23:09:33.756Z,4.40
2018-01-11T23:12:02.172Z,4.40
2018-01-11T23:14:30.712Z,4.40
2018-01-11T23:16:59.098Z,4.40
2018-01-11T23:19:27.506Z,4.50
2018-01-11T23:21:56.021Z,4.50
2018-01-11T23:24:25.167Z,4.50
2018-01-11T23:26:53.560Z,4.40
2018-01-11T23:29:21.987Z,4.50
2018-01-11T23:31:50.390Z,4.40
2018-01-11T23:34:18.766Z,4.50
2018-01-11T23:36:47.353Z,4.50
2018-01-11T23:39:16.142Z,4.40
2018-01-11T23:41:44.542Z,4.40
2018-01-11T23:44:13.162Z,4.50
2018-01-11T23:46:42.391Z,4.40
2018-01-11T23:49:10.777Z,4.40
2018-01-11T23:51:39.744Z,4.40
2018-01-11T23:54:08.893Z,4.40
2018-01-11T23:56:37.266Z,4.40
2018-01-11T23:59:06.124Z,4.50
